메인 페이지
METAR-TAF:

METAR-TAF

공항 :

라파스, 볼리비아

엘알토 국제공항

위도: 16-31S, 경도: 068-11W, 고도: 4058m

현재 날씨관측

예보는 52분 전, 05:00시(UTC)에 발표되었습니다.
7kt
온도 6°C
습도 93%
기압 1037 hPa
시정: 4000m
고도 400ft 상공 구름 조금
고도 1300ft 상공 구름 보통
고도 1700ft 상공 구름 조금, 적란운.
고도 20000ft 상공 구름 많음
시계 내 안개

METAR: SLLP 180500Z 08007KT 4000E VCFG FEW004 SCT013 FEW017CB BKN200 06/05 Q1037 METAR

시각: 01:52 (05:52 UTC)

예보

예보는 1 시간 52분 전, 04:00시(UTC)에 발표되었습니다.
예보 대상 시간: 18일 06시부터 19일 06시까지 (UTC)
동북동6kt
시정: 3000m
고도 200ft 상공 구름 조금
고도 1000ft 상공 구름 보통
시계 내 안개
전환 중
18일 12시부터 18일 14시까지 (UTC)
남동6kt
시정 10km 이상
고도 1500ft 상공 구름 보통
일시적
18일 18시부터 일 시까지 (UTC)
북동12kt
시정: 8000m
고도 1700ft 상공 구름 보통
고도 2000ft 상공 구름 조금, 적란운.

TAF: SLLP 180400Z 1806/1906 07006KT 3000E VCFG FEW002 SCT010 TX16/ 1820Z TN05/1810Z BECMG 1812/1814 14006KT 9999 NSW SCT015 TEMPO 1818/ 1822 05012KT 8000 VCTSSH SCT017 FEW020CB

4,000개 이상의 공항 관측 자료 및 예보 (METAR 및 TAF 보고).

지도상에서 검색 가능한 기상관측소가 노란 점과 빨간 점으로 표시되어 있습니다.

기상관측소 명을 보려면 표시 위로 마우스를 이동하세요.

날씨 관측과 예보를 보려면 클릭하세요.

지도 변경 : 확대하려면 엑스 표시가 있는 녹색 버튼, 축소하려면 빼기 표시가 있는 녹색 버튼, 다음 페이지의 지도를 보려면 녹색 화살표를 클릭하세요.


METAR-TAF: